createdAt,value
2023-05-10T03:12:56.905Z,79.54
2023-05-10T03:16:10.962Z,79.54
2023-05-10T03:19:39.443Z,81.69
2023-05-10T03:22:47.918Z,81.20
2023-05-10T03:25:51.727Z,80.84
2023-05-10T03:28:55.076Z,80.62
2023-05-10T03:32:00.321Z,80.80
2023-05-10T03:35:10.302Z,80.30
2023-05-10T03:38:15.682Z,80.71
2023-05-10T03:41:18.175Z,81.30
2023-05-10T03:44:20.422Z,79.89
2023-05-10T03:47:22.874Z,79.87
2023-05-10T03:50:25.593Z,79.88
2023-05-10T03:53:28.049Z,79.02
2023-05-10T03:56:31.062Z,78.37
2023-05-10T03:59:33.863Z,78.23
2023-05-10T04:02:36.182Z,78.95
2023-05-10T04:05:38.784Z,77.90
2023-05-10T04:08:40.976Z,76.91
2023-05-10T04:11:43.621Z,76.71
2023-05-10T04:14:45.783Z,77.03
2023-05-10T04:17:48.273Z,77.74
2023-05-10T04:20:50.463Z,77.24
2023-05-10T04:23:52.920Z,77.04
2023-05-10T04:26:57.630Z,77.16
2023-05-10T04:30:00.420Z,76.85
2023-05-10T04:33:05.060Z,76.87
2023-05-10T04:36:07.792Z,76.72
2023-05-10T04:39:10.775Z,75.90
2023-05-10T04:42:13.444Z,76.81
2023-05-10T04:45:15.714Z,76.27
2023-05-10T04:48:18.145Z,75.55
2023-05-10T04:51:21.448Z,75.61
2023-05-10T04:54:23.972Z,74.88
2023-05-10T04:57:26.254Z,73.54
2023-05-10T05:00:29.031Z,73.32
2023-05-10T05:03:31.378Z,73.03
2023-05-10T05:06:34.054Z,72.35
2023-05-10T05:09:37.005Z,70.19
2023-05-10T05:12:39.475Z,68.90
2023-05-10T05:15:41.727Z,68.13
2023-05-10T05:18:44.316Z,66.98
2023-05-10T05:21:46.679Z,66.11
2023-05-10T05:24:49.156Z,65.67
2023-05-10T05:27:51.301Z,65.49
2023-05-10T05:30:54.072Z,66.65
2023-05-10T05:33:56.615Z,67.13
2023-05-10T05:36:59.131Z,65.90
2023-05-10T05:43:10.120Z,64.34
2023-05-10T05:49:19.986Z,61.03
2023-05-10T05:52:22.267Z,62.26
2023-05-10T05:55:25.341Z,60.87
2023-05-10T05:58:27.909Z,59.82
2023-05-10T06:01:30.352Z,59.00
2023-05-10T06:04:32.809Z,57.65
2023-05-10T06:07:35.172Z,57.05
2023-05-10T06:10:38.192Z,56.48
2023-05-10T06:13:40.748Z,58.54
2023-05-10T06:16:50.730Z,56.33
2023-05-10T06:19:56.327Z,56.08
2023-05-10T06:22:59.629Z,54.69
2023-05-10T06:26:01.839Z,54.48
2023-05-10T06:29:04.687Z,53.40
2023-05-10T06:32:08.372Z,52.66
2023-05-10T06:35:11.027Z,51.39
2023-05-10T06:38:13.208Z,51.52
2023-05-10T06:41:15.586Z,51.10
2023-05-10T06:44:18.210Z,51.50
2023-05-10T06:47:20.879Z,50.99
2023-05-10T06:50:23.279Z,50.75
2023-05-10T06:53:25.848Z,49.81
2023-05-10T06:56:28.347Z,48.02
2023-05-10T06:59:30.790Z,47.67
2023-05-10T07:02:33.166Z,49.06
2023-05-10T07:05:35.817Z,48.79
2023-05-10T07:08:38.248Z,49.74
2023-05-10T07:11:40.669Z,47.63
2023-05-10T07:14:43.301Z,48.83
2023-05-10T07:17:46.553Z,48.28
2023-05-10T07:20:48.847Z,49.41
2023-05-10T07:23:51.284Z,49.72
2023-05-10T07:26:53.497Z,49.41
2023-05-10T07:29:57.500Z,50.47
2023-05-10T07:33:00.254Z,50.11
2023-05-10T07:36:02.876Z,50.81
2023-05-10T07:39:06.337Z,49.57
2023-05-10T07:42:09.258Z,47.37
2023-05-10T07:45:11.913Z,47.01
2023-05-10T07:48:14.419Z,47.27
2023-05-10T07:51:16.711Z,44.06
2023-05-10T07:54:19.197Z,48.36
2023-05-10T07:57:21.898Z,50.63
2023-05-10T08:00:24.319Z,51.48
2023-05-10T08:03:26.737Z,51.15
2023-05-10T08:06:30.820Z,48.45
2023-05-10T08:09:33.401Z,48.57
2023-05-10T08:12:35.549Z,49.54
2023-05-10T08:15:38.014Z,50.74
2023-05-10T08:18:41.161Z,51.77
2023-05-10T08:21:43.606Z,50.03
2023-05-10T08:24:47.284Z,51.81
2023-05-10T08:27:50.355Z,48.03
2023-05-10T08:30:52.538Z,46.03
2023-05-10T08:33:54.987Z,45.04
2023-05-10T08:36:57.151Z,44.46
2023-05-10T08:39:59.612Z,46.00
2023-05-10T08:43:10.061Z,44.07
2023-05-10T08:46:18.390Z,42.14
2023-05-10T08:49:21.158Z,43.86
2023-05-10T08:52:26.817Z,48.86
2023-05-10T08:55:29.314Z,49.32
2023-05-10T08:58:32.066Z,44.42
2023-05-10T09:01:37.498Z,44.49
2023-05-10T09:04:40.098Z,43.51
2023-05-10T09:07:42.984Z,44.96
2023-05-10T09:10:48.248Z,44.28
2023-05-10T09:13:53.527Z,44.25
2023-05-10T09:16:57.422Z,43.31
2023-05-10T09:20:00.766Z,41.06
2023-05-10T09:23:03.562Z,39.00
2023-05-10T09:26:06.617Z,36.95
2023-05-10T09:29:09.436Z,35.79
2023-05-10T09:32:13.922Z,37.68
2023-05-10T09:35:27.994Z,37.32
2023-05-10T09:38:48.346Z,36.37
2023-05-10T09:41:55.929Z,37.12
2023-05-10T09:45:16.016Z,38.18
2023-05-10T09:48:18.633Z,37.57
2023-05-10T09:51:25.489Z,33.14
2023-05-10T09:54:28.068Z,34.53
2023-05-10T09:57:30.561Z,37.24
2023-05-10T10:00:37.892Z,36.86
2023-05-10T10:03:44.452Z,40.50
2023-05-10T10:06:46.734Z,37.73
2023-05-10T10:09:49.466Z,33.83
2023-05-10T10:12:52.846Z,32.88
2023-05-10T10:15:55.698Z,31.83
2023-05-10T10:18:58.194Z,34.48
2023-05-10T10:22:01.354Z,33.38
2023-05-10T10:25:05.125Z,27.76
2023-05-10T10:28:28.398Z,27.37
2023-05-10T10:31:53.209Z,22.31
2023-05-10T10:34:57.235Z,23.71
2023-05-10T10:37:59.781Z,24.06
2023-05-10T10:41:28.232Z,18.48
2023-05-10T10:44:34.627Z,15.65
2023-05-10T10:47:38.335Z,14.11
2023-05-10T10:50:47.865Z,16.02
2023-05-10T10:53:50.722Z,21.96
2023-05-10T10:57:15.368Z,19.26
2023-05-10T11:00:37.919Z,20.57
2023-05-10T11:03:40.315Z,26.63
2023-05-10T11:06:43.546Z,24.27
2023-05-10T11:09:48.280Z,21.24
2023-05-10T11:13:02.028Z,18.58
2023-05-10T11:16:14.893Z,23.47
2023-05-10T11:19:18.833Z,24.66
2023-05-10T11:22:20.967Z,27.67
2023-05-10T11:25:29.557Z,28.41
2023-05-10T11:28:31.807Z,30.17
2023-05-10T11:31:34.426Z,31.62
2023-05-10T11:34:36.590Z,30.23
2023-05-10T11:37:44.307Z,30.61
2023-05-10T11:40:46.595Z,31.14
2023-05-10T11:43:52.055Z,32.57
2023-05-10T11:46:54.256Z,31.88
2023-05-10T11:49:56.851Z,33.17
2023-05-10T11:53:02.017Z,34.43
2023-05-10T11:56:11.554Z,34.21
2023-05-10T11:59:15.717Z,33.41
2023-05-10T12:02:18.201Z,32.99
2023-05-10T12:05:20.879Z,33.69
2023-05-10T12:08:25.332Z,33.52
2023-05-10T12:11:29.287Z,33.84
2023-05-10T12:14:36.108Z,35.14
2023-05-10T12:17:42.685Z,34.39
2023-05-10T12:20:45.842Z,33.99
2023-05-10T12:23:51.829Z,30.79
2023-05-10T12:26:53.982Z,33.23
2023-05-10T12:29:56.464Z,34.33
2023-05-10T12:33:10.645Z,35.41
2023-05-10T12:36:15.468Z,36.11
2023-05-10T12:39:17.622Z,38.03
2023-05-10T12:42:20.033Z,35.61
2023-05-10T12:45:23.069Z,38.40
2023-05-10T12:48:25.919Z,38.09
2023-05-10T12:51:28.083Z,37.02
2023-05-10T12:54:30.810Z,36.25
2023-05-10T12:57:33.046Z,38.05
2023-05-10T13:00:35.547Z,37.72
2023-05-10T13:03:37.644Z,35.97
2023-05-10T13:06:40.279Z,36.40
2023-05-10T13:09:42.466Z,34.38
2023-05-10T13:12:46.298Z,34.68
2023-05-10T13:15:48.470Z,35.16
2023-05-10T13:18:50.925Z,35.51
2023-05-10T13:21:53.135Z,35.56
2023-05-10T13:24:55.517Z,35.05
2023-05-10T13:27:57.750Z,35.79
2023-05-10T13:31:01.005Z,35.85
2023-05-10T13:34:03.686Z,36.55
2023-05-10T13:37:06.370Z,35.20
2023-05-10T13:40:09.153Z,35.49
2023-05-10T13:43:11.811Z,35.15
2023-05-10T13:46:13.951Z,34.93
2023-05-10T13:49:16.390Z,34.24
2023-05-10T13:52:19.151Z,33.68
2023-05-10T13:55:21.587Z,34.56
2023-05-10T13:58:24.625Z,33.06
2023-05-10T14:01:27.218Z,34.56
2023-05-10T14:04:30.622Z,35.07
2023-05-10T14:07:32.762Z,35.23
2023-05-10T14:10:35.251Z,34.47
2023-05-10T14:13:37.506Z,34.08
2023-05-10T14:16:44.053Z,35.18
2023-05-10T14:19:46.328Z,32.19
2023-05-10T14:22:48.761Z,32.27
2023-05-10T14:25:52.317Z,33.42
2023-05-10T14:28:54.899Z,34.54
2023-05-10T14:31:57.124Z,32.28
2023-05-10T14:35:00.475Z,31.46
2023-05-10T14:38:05.703Z,33.93
2023-05-10T14:41:09.966Z,32.55
2023-05-10T14:44:13.492Z,34.86
2023-05-10T14:47:15.872Z,36.28
2023-05-10T14:50:32.192Z,34.85
2023-05-10T14:53:38.156Z,33.57
2023-05-10T14:56:42.443Z,33.18
2023-05-10T14:59:46.428Z,32.95
2023-05-10T15:02:49.371Z,33.09
2023-05-10T15:05:53.048Z,33.27
2023-05-10T15:08:55.168Z,34.01
2023-05-10T15:11:57.547Z,35.64
2023-05-10T15:14:59.692Z,36.85
2023-05-10T15:18:02.121Z,34.89
2023-05-10T15:21:04.270Z,36.20
2023-05-10T15:24:07.087Z,37.56
